^^
Datos históricos de la estación: Murcia-Puente Tocinos
 
Diario Informe para Julio 25, 2024 Unidades:  Métrico    Ingés   Ambas
Diario Semanal Mensual Anual
  Actual: Máxima: Mínima: Promedio:
Temperatura: 24.4 °C 28.2 °C 24.4 °C 25.9 °C
Punto de rocio: 19.4 °C 19.4 °C 14.7 °C 17.4 °C
Humedad: 73.9% 73.9% 44% 60%
Velocidad viento: 8.2km/h 11.1km/h 5km/h 8km/h
Racha viento: 5.8km/h 6.9km/h - -
VientoNE - - NNE
Presión: 1011.8 hPa 1012.8 hPa 1011.8 hPa -
Precipitación: 0.0 mm      
 
 
Tabla de datos para Julio 25, 2024
Hora Temperatura Punto de rocio Presión Viento Velocidad viento Racha viento Humedad Intensidad lluvia(por hora) Nubes
00:04 28.2 °C 14.7 °C 1012.8 hPa NNE 6.4 km/h 4.7 km/h 44% 0.0 mm
00:09 28 °C 14.9 °C 1012.8 hPa NNE 7.3 km/h 5 km/h 44.9% 0.0 mm
00:14 27.9 °C 15.1 °C 1012.8 hPa NNE 7.8 km/h 5 km/h 45.7% 0.0 mm
00:19 27.8 °C 15.1 °C 1012.8 hPa NE 7.8 km/h 5 km/h 46% 0.0 mm
00:24 27.6 °C 15.3 °C 1012.8 hPa NE 9.8 km/h 5 km/h 46.9% 0.0 mm
00:29 27.4 °C 15.5 °C 1012.8 hPa NNE 10.3 km/h 6.4 km/h 48.3% 0.0 mm
00:34 27.3 °C 15.8 °C 1012.7 hPa NNE 9.1 km/h 6.4 km/h 49.4% 0.0 mm
00:39 27.2 °C 15.9 °C 1012.7 hPa NNE 8.6 km/h 6.4 km/h 50% 0.0 mm
00:44 27.1 °C 16.1 °C 1012.8 hPa NNE 9.1 km/h 6.4 km/h 50.9% 0.0 mm
00:49 27.1 °C 16.2 °C 1012.8 hPa NNE 7.8 km/h 6.4 km/h 51.4% 0.0 mm
00:54 27.1 °C 16.3 °C 1012.8 hPa NNE 8 km/h 5 km/h 52% 0.0 mm
00:59 27 °C 16.6 °C 1012.8 hPa NNE 8.7 km/h 5 km/h 53% 0.0 mm
01:04 26.9 °C 16.5 °C 1012.6 hPa NNE 8.1 km/h 5 km/h 53% 0.0 mm
01:09 26.9 °C 16.7 °C 1012.6 hPa NNE 8 km/h 5.8 km/h 53.6% 0.0 mm
01:14 26.8 °C 16.7 °C 1012.7 hPa NNE 7 km/h 5.8 km/h 54% 0.0 mm
01:19 26.7 °C 16.7 °C 1012.7 hPa NE 8.7 km/h 5.8 km/h 54.2% 0.0 mm
01:24 26.6 °C 16.8 °C 1012.7 hPa NE 7.5 km/h 5.8 km/h 55% 0.0 mm
01:29 26.5 °C 16.8 °C 1012.7 hPa NE 8.1 km/h 5.8 km/h 55% 0.0 mm
01:34 26.4 °C 16.9 °C 1012.6 hPa NE 8.8 km/h 5.8 km/h 56% 0.0 mm
01:39 26.3 °C 16.9 °C 1012.6 hPa NNE 8.6 km/h 5.8 km/h 56.3% 0.0 mm
01:44 26.2 °C 17 °C 1012.6 hPa NNE 9 km/h 5.8 km/h 57% 0.0 mm
01:49 26.1 °C 17 °C 1012.5 hPa North 7.8 km/h 6.4 km/h 57.5% 0.0 mm
01:54 26 °C 17.1 °C 1012.5 hPa NNE 8.1 km/h 6.4 km/h 58% 0.0 mm
01:59 25.9 °C 17 °C 1012.5 hPa NE 8.1 km/h 6.4 km/h 58.1% 0.0 mm
02:04 25.8 °C 17.2 °C 1012.5 hPa NE 8 km/h 5.8 km/h 59% 0.0 mm
02:09 25.8 °C 17.2 °C 1012.5 hPa NNE 7.1 km/h 5.8 km/h 59% 0.0 mm
02:14 25.8 °C 17.2 °C 1012.5 hPa NNE 6.7 km/h 5 km/h 59% 0.0 mm
02:19 25.8 °C 17.2 °C 1012.4 hPa NNE 6.7 km/h 5 km/h 59% 0.0 mm
02:24 25.8 °C 17.1 °C 1012.4 hPa NNE 5 km/h 3.9 km/h 59% 0.0 mm
02:29 25.7 °C 17.2 °C 1012.5 hPa NNE 7.4 km/h 3.9 km/h 59.5% 0.0 mm
02:34 25.7 °C 17.3 °C 1012.5 hPa NNE 8 km/h 3.9 km/h 60% 0.0 mm
02:39 25.7 °C 17.6 °C 1012.5 hPa NNE 6.9 km/h 5 km/h 61% 0.0 mm
02:44 25.7 °C 17.7 °C 1012.5 hPa NE 9.5 km/h 5 km/h 61.7% 0.0 mm
02:49 25.5 °C 17.9 °C 1012.4 hPa NE 11.1 km/h 6.9 km/h 63% 0.0 mm
02:54 25.3 °C 18 °C 1012.4 hPa NE 8.5 km/h 6.9 km/h 64% 0.0 mm
02:59 25.2 °C 18 °C 1012.4 hPa NE 8.1 km/h 6.9 km/h 64.7% 0.0 mm
03:04 25.1 °C 18.1 °C 1012.3 hPa NE 7.4 km/h 6.4 km/h 65% 0.0 mm
03:09 25.1 °C 18.2 °C 1012.3 hPa NNE 6.7 km/h 6.4 km/h 65.8% 0.0 mm
03:14 24.9 °C 18.1 °C 1012.3 hPa NNE 6.5 km/h 4.7 km/h 66% 0.0 mm
03:19 24.9 °C 18.2 °C 1012.3 hPa NE 6.2 km/h 4.7 km/h 66.6% 0.0 mm
03:24 24.9 °C 18.3 °C 1012.3 hPa NE 6 km/h 4.7 km/h 67% 0.0 mm
03:29 24.9 °C 18.6 °C 1012.3 hPa NNE 7.2 km/h 4.7 km/h 68% 0.0 mm
03:34 24.9 °C 18.6 °C 1012.2 hPa NE 7.7 km/h 4.7 km/h 68% 0.0 mm
03:39 24.9 °C 18.6 °C 1012.2 hPa NE 8.7 km/h 5.8 km/h 68% 0.0 mm
03:44 24.8 °C 18.6 °C 1012.2 hPa NE 10.3 km/h 5.8 km/h 68.4% 0.0 mm
03:49 24.8 °C 18.7 °C 1012.1 hPa NE 9.1 km/h 6.9 km/h 69% 0.0 mm
03:54 24.8 °C 18.7 °C 1012.1 hPa NE 8.4 km/h 6.9 km/h 69% 0.0 mm
03:59 24.7 °C 18.8 °C 1012.1 hPa NE 8.5 km/h 6.9 km/h 70% 0.0 mm
04:04 24.7 °C 18.9 °C 1011.9 hPa NNE 8.1 km/h 5.8 km/h 70.1% 0.0 mm
04:09 24.6 °C 19 °C 1011.9 hPa NNE 8.2 km/h 5.8 km/h 70.8% 0.0 mm
04:14 24.6 °C 19 °C 1012.0 hPa NNE 7.3 km/h 5.8 km/h 71.1% 0.0 mm
04:19 24.5 °C 19.1 °C 1012.0 hPa NNE 6.9 km/h 5.8 km/h 72% 0.0 mm
04:24 24.4 °C 19 °C 1012.0 hPa NE 7.4 km/h 4.7 km/h 72.2% 0.0 mm
04:29 24.4 °C 19.2 °C 1012.0 hPa NE 9.1 km/h 5.8 km/h 73% 0.0 mm
04:34 24.4 °C 19.4 °C 1011.8 hPa NE 8.2 km/h 5.8 km/h 73.9% 0.0 mm
Murcia-Puente Tocinos, España
Compliments of Weather Underground - 1.75 mb

La estación de MeteoMurcia.com, publica sus datos en los siguientes proyectos:

Weather Underground PWS IMURCIAP2 Meteoclimatic www.awekas.at

Web Analytics

Clicky